sensor_id;sensor_type;location;lat;lon;timestamp;pressure;altitude;pressure_sealevel;temperature;humidity
12759;BME280;20944;47.048;15.390;2022-08-25T00:01:53;97679.28;;;19.27;100.00
12759;BME280;20944;47.048;15.390;2022-08-25T00:04:22;97671.19;;;19.29;100.00
12759;BME280;20944;47.048;15.390;2022-08-25T00:06:52;97592.19;;;18.75;100.00
12759;BME280;20944;47.048;15.390;2022-08-25T00:09:27;97672.16;;;19.28;100.00
12759;BME280;20944;47.048;15.390;2022-08-25T00:11:56;97665.88;;;19.29;100.00
12759;BME280;20944;47.048;15.390;2022-08-25T00:14:27;97661.34;;;19.31;100.00
12759;BME280;20944;47.048;15.390;2022-08-25T00:16:56;97656.09;;;19.29;100.00
12759;BME280;20944;47.048;15.390;2022-08-25T00:19:27;97654.50;;;19.27;100.00
12759;BME280;20944;47.048;15.390;2022-08-25T00:21:57;97646.53;;;19.27;100.00
12759;BME280;20944;47.048;15.390;2022-08-25T00:24:28;97658.75;;;19.29;100.00
12759;BME280;20944;47.048;15.390;2022-08-25T00:26:58;97630.13;;;19.20;100.00
12759;BME280;20944;47.048;15.390;2022-08-25T00:29:28;97652.69;;;19.41;100.00
12759;BME280;20944;47.048;15.390;2022-08-25T00:31:57;97640.56;;;19.37;100.00
12759;BME280;20944;47.048;15.390;2022-08-25T00:34:28;97654.69;;;19.38;100.00
12759;BME280;20944;47.048;15.390;2022-08-25T00:36:57;97643.97;;;19.39;100.00
12759;BME280;20944;47.048;15.390;2022-08-25T00:39:27;97637.13;;;19.35;100.00
12759;BME280;20944;47.048;15.390;2022-08-25T00:41:56;97649.66;;;19.33;100.00
12759;BME280;20944;47.048;15.390;2022-08-25T00:44:26;97637.13;;;19.35;100.00
12759;BME280;20944;47.048;15.390;2022-08-25T00:46:56;97623.09;;;19.33;100.00
12759;BME280;20944;47.048;15.390;2022-08-25T00:49:29;97634.16;;;19.54;100.00
12759;BME280;20944;47.048;15.390;2022-08-25T00:52:00;97639.28;;;19.57;100.00
12759;BME280;20944;47.048;15.390;2022-08-25T00:54:34;97632.38;;;19.40;100.00
12759;BME280;20944;47.048;15.390;2022-08-25T00:57:05;97607.53;;;19.27;100.00
12759;BME280;20944;47.048;15.390;2022-08-25T00:59:34;97616.25;;;19.29;100.00
12759;BME280;20944;47.048;15.390;2022-08-25T01:02:04;97622.53;;;19.43;100.00
12759;BME280;20944;47.048;15.390;2022-08-25T01:04:36;97614.63;;;19.41;100.00
12759;BME280;20944;47.048;15.390;2022-08-25T01:07:04;97621.84;;;19.39;100.00
12759;BME280;20944;47.048;15.390;2022-08-25T01:09:43;97618.34;;;19.38;100.00
12759;BME280;20944;47.048;15.390;2022-08-25T01:12:11;97624.50;;;19.39;100.00
12759;BME280;20944;47.048;15.390;2022-08-25T01:14:39;97611.13;;;19.26;100.00
12759;BME280;20944;47.048;15.390;2022-08-25T01:17:08;97616.91;;;19.33;100.00
12759;BME280;20944;47.048;15.390;2022-08-25T01:19:36;97600.78;;;19.22;100.00
12759;BME280;20944;47.048;15.390;2022-08-25T01:22:07;97610.94;;;19.29;100.00
12759;BME280;20944;47.048;15.390;2022-08-25T01:24:40;97565.53;;;19.05;100.00
12759;BME280;20944;47.048;15.390;2022-08-25T01:27:10;97581.72;;;19.15;100.00
12759;BME280;20944;47.048;15.390;2022-08-25T01:29:38;97609.06;;;19.31;100.00
12759;BME280;20944;47.048;15.390;2022-08-25T01:32:09;97615.00;;;19.35;100.00
12759;BME280;20944;47.048;15.390;2022-08-25T01:34:39;97578.97;;;19.17;100.00
12759;BME280;20944;47.048;15.390;2022-08-25T01:37:12;97589.31;;;19.21;100.00
12759;BME280;20944;47.048;15.390;2022-08-25T01:39:42;97605.63;;;19.29;100.00
12759;BME280;20944;47.048;15.390;2022-08-25T01:42:32;97604.97;;;19.26;100.00
12759;BME280;20944;47.048;15.390;2022-08-25T01:45:01;97567.25;;;19.06;100.00
12759;BME280;20944;47.048;15.390;2022-08-25T01:47:30;97522.31;;;18.75;100.00
12759;BME280;20944;47.048;15.390;2022-08-25T01:49:58;97589.88;;;19.26;100.00
12759;BME280;20944;47.048;15.390;2022-08-25T01:52:32;97574.03;;;19.25;100.00
12759;BME280;20944;47.048;15.390;2022-08-25T01:55:01;97578.19;;;19.29;100.00
12759;BME280;20944;47.048;15.390;2022-08-25T01:57:30;97563.69;;;19.20;100.00
12759;BME280;20944;47.048;15.390;2022-08-25T01:59:58;97581.56;;;19.18;100.00
12759;BME280;20944;47.048;15.390;2022-08-25T02:02:27;97560.69;;;18.98;100.00
12759;BME280;20944;47.048;15.390;2022-08-25T02:04:58;97576.44;;;19.01;100.00
12759;BME280;20944;47.048;15.390;2022-08-25T02:07:28;97598.91;;;19.09;100.00
12759;BME280;20944;47.048;15.390;2022-08-25T02:09:56;97471.19;;;18.28;100.00
12759;BME280;20944;47.048;15.390;2022-08-25T02:12:29;97607.56;;;19.13;100.00
12759;BME280;20944;47.048;15.390;2022-08-25T02:14:58;97609.53;;;19.09;100.00
12759;BME280;20944;47.048;15.390;2022-08-25T02:17:27;97596.81;;;19.14;100.00
12759;BME280;20944;47.048;15.390;2022-08-25T02:19:56;97598.44;;;19.03;100.00
12759;BME280;20944;47.048;15.390;2022-08-25T02:22:25;97590.09;;;18.95;100.00
12759;BME280;20944;47.048;15.390;2022-08-25T02:24:55;97593.50;;;18.97;100.00
12759;BME280;20944;47.048;15.390;2022-08-25T02:27:24;97585.34;;;18.85;100.00
12759;BME280;20944;47.048;15.390;2022-08-25T02:29:52;97591.63;;;18.99;100.00
12759;BME280;20944;47.048;15.390;2022-08-25T02:32:20;97561.06;;;18.77;100.00
12759;BME280;20944;47.048;15.390;2022-08-25T02:34:48;97523.22;;;18.45;100.00
12759;BME280;20944;47.048;15.390;2022-08-25T02:37:17;97590.00;;;18.96;100.00
12759;BME280;20944;47.048;15.390;2022-08-25T02:39:45;97595.22;;;18.83;100.00
12759;BME280;20944;47.048;15.390;2022-08-25T02:42:15;97596.66;;;18.75;100.00
12759;BME280;20944;47.048;15.390;2022-08-25T02:44:43;97554.00;;;18.48;100.00
12759;BME280;20944;47.048;15.390;2022-08-25T02:47:11;97595.50;;;18.79;100.00
12759;BME280;20944;47.048;15.390;2022-08-25T02:49:40;97591.22;;;18.76;100.00
12759;BME280;20944;47.048;15.390;2022-08-25T02:52:08;97540.25;;;18.41;100.00
12759;BME280;20944;47.048;15.390;2022-08-25T02:54:36;97586.97;;;18.74;100.00
12759;BME280;20944;47.048;15.390;2022-08-25T02:57:05;97565.50;;;18.63;100.00
12759;BME280;20944;47.048;15.390;2022-08-25T02:59:35;97563.34;;;18.69;100.00
12759;BME280;20944;47.048;15.390;2022-08-25T03:02:04;97584.69;;;18.82;100.00
12759;BME280;20944;47.048;15.390;2022-08-25T03:04:32;97554.91;;;18.77;100.00
12759;BME280;20944;47.048;15.390;2022-08-25T03:07:00;97561.66;;;18.82;100.00
12759;BME280;20944;47.048;15.390;2022-08-25T03:09:29;97571.69;;;18.92;100.00
12759;BME280;20944;47.048;15.390;2022-08-25T03:11:59;97570.75;;;18.93;100.00
12759;BME280;20944;47.048;15.390;2022-08-25T03:14:28;97568.38;;;19.02;100.00
12759;BME280;20944;47.048;15.390;2022-08-25T03:16:57;97570.38;;;18.99;100.00
12759;BME280;20944;47.048;15.390;2022-08-25T03:19:26;97565.13;;;18.97;100.00
12759;BME280;20944;47.048;15.390;2022-08-25T03:21:54;97567.81;;;18.97;100.00
12759;BME280;20944;47.048;15.390;2022-08-25T03:24:23;97567.41;;;19.03;100.00
12759;BME280;20944;47.048;15.390;2022-08-25T03:26:51;97562.09;;;19.03;100.00
12759;BME280;20944;47.048;15.390;2022-08-25T03:29:22;97560.50;;;19.01;100.00
12759;BME280;20944;47.048;15.390;2022-08-25T03:31:52;97554.91;;;19.05;100.00
12759;BME280;20944;47.048;15.390;2022-08-25T03:34:28;97567.03;;;19.09;100.00
12759;BME280;20944;47.048;15.390;2022-08-25T03:36:57;97546.28;;;19.02;100.00
12759;BME280;20944;47.048;15.390;2022-08-25T03:39:26;97564.94;;;19.14;100.00
12759;BME280;20944;47.048;15.390;2022-08-25T03:41:54;97567.50;;;19.16;100.00
12759;BME280;20944;47.048;15.390;2022-08-25T03:44:23;97553.38;;;19.01;100.00
12759;BME280;20944;47.048;15.390;2022-08-25T03:46:51;97563.81;;;19.04;100.00
12759;BME280;20944;47.048;15.390;2022-08-25T03:49:21;97558.59;;;19.03;100.00
12759;BME280;20944;47.048;15.390;2022-08-25T03:51:52;97567.41;;;19.03;100.00
12759;BME280;20944;47.048;15.390;2022-08-25T03:54:23;97521.94;;;18.81;100.00
12759;BME280;20944;47.048;15.390;2022-08-25T03:56:52;97566.19;;;18.95;100.00
12759;BME280;20944;47.048;15.390;2022-08-25T03:59:21;97571.88;;;18.89;100.00
12759;BME280;20944;47.048;15.390;2022-08-25T04:01:49;97553.41;;;18.87;100.00
12759;BME280;20944;47.048;15.390;2022-08-25T04:04:21;97557.56;;;18.91;100.00
12759;BME280;20944;47.048;15.390;2022-08-25T04:06:51;97477.84;;;18.36;100.00
12759;BME280;20944;47.048;15.390;2022-08-25T04:09:20;97563.25;;;18.85;100.00
12759;BME280;20944;47.048;15.390;2022-08-25T04:11:49;97533.22;;;18.70;100.00
12759;BME280;20944;47.048;15.390;2022-08-25T04:14:20;97561.16;;;18.90;100.00
12759;BME280;20944;47.048;15.390;2022-08-25T04:16:49;97557.19;;;18.97;100.00
12759;BME280;20944;47.048;15.390;2022-08-25T04:19:19;97552.91;;;18.95;100.00
12759;BME280;20944;47.048;15.390;2022-08-25T04:21:48;97558.03;;;18.98;100.00
12759;BME280;20944;47.048;15.390;2022-08-25T04:24:23;97558.69;;;19.01;100.00
12759;BME280;20944;47.048;15.390;2022-08-25T04:26:52;97544.09;;;18.94;100.00
12759;BME280;20944;47.048;15.390;2022-08-25T04:29:22;97561.16;;;19.04;100.00
12759;BME280;20944;47.048;15.390;2022-08-25T04:31:52;97530.34;;;18.88;100.00
12759;BME280;20944;47.048;15.390;2022-08-25T04:34:23;97566.66;;;19.01;100.00
12759;BME280;20944;47.048;15.390;2022-08-25T04:36:58;97566.97;;;19.11;100.00
12759;BME280;20944;47.048;15.390;2022-08-25T04:39:28;97568.84;;;19.09;100.00
12759;BME280;20944;47.048;15.390;2022-08-25T04:41:57;97574.16;;;19.09;100.00
12759;BME280;20944;47.048;15.390;2022-08-25T04:44:27;97527.97;;;18.83;100.00
12759;BME280;20944;47.048;15.390;2022-08-25T04:46:56;97572.72;;;19.18;100.00
12759;BME280;20944;47.048;15.390;2022-08-25T04:49:24;97556.31;;;19.11;100.00
12759;BME280;20944;47.048;15.390;2022-08-25T04:51:53;97572.81;;;19.30;100.00
12759;BME280;20944;47.048;15.390;2022-08-25T04:54:23;97558.28;;;19.22;100.00
12759;BME280;20944;47.048;15.390;2022-08-25T04:56:53;97584.06;;;19.34;100.00
12759;BME280;20944;47.048;15.390;2022-08-25T04:59:24;97580.91;;;19.41;100.00
12759;BME280;20944;47.048;15.390;2022-08-25T05:01:56;97570.22;;;19.43;100.00
12759;BME280;20944;47.048;15.390;2022-08-25T05:04:28;97586.88;;;19.59;100.00
12759;BME280;20944;47.048;15.390;2022-08-25T05:06:57;97591.25;;;19.60;100.00
12759;BME280;20944;47.048;15.390;2022-08-25T05:09:26;97586.50;;;19.65;100.00
12759;BME280;20944;47.048;15.390;2022-08-25T05:12:00;97590.78;;;19.68;100.00
12759;BME280;20944;47.048;15.390;2022-08-25T05:14:29;97593.13;;;19.73;100.00
12759;BME280;20944;47.048;15.390;2022-08-25T05:16:58;97563.91;;;19.58;100.00
12759;BME280;20944;47.048;15.390;2022-08-25T05:19:26;97589.97;;;19.80;100.00
12759;BME280;20944;47.048;15.390;2022-08-25T05:21:54;97596.50;;;19.89;100.00
12759;BME280;20944;47.048;15.390;2022-08-25T05:24:23;97577.53;;;19.81;100.00
12759;BME280;20944;47.048;15.390;2022-08-25T05:26:52;97600.03;;;20.02;100.00
12759;BME280;20944;47.048;15.390;2022-08-25T05:29:22;97595.78;;;20.00;100.00
12759;BME280;20944;47.048;15.390;2022-08-25T05:31:50;97573.22;;;19.92;100.00
12759;BME280;20944;47.048;15.390;2022-08-25T05:34:20;97594.63;;;20.16;100.00
12759;BME280;20944;47.048;15.390;2022-08-25T05:36:48;97596.47;;;20.29;100.00
12759;BME280;20944;47.048;15.390;2022-08-25T05:39:17;97543.75;;;20.08;100.00
12759;BME280;20944;47.048;15.390;2022-08-25T05:41:45;97603.75;;;20.39;100.00
12759;BME280;20944;47.048;15.390;2022-08-25T05:44:13;97582.84;;;20.20;100.00
12759;BME280;20944;47.048;15.390;2022-08-25T05:46:48;97581.16;;;20.19;100.00
12759;BME280;20944;47.048;15.390;2022-08-25T05:49:17;97600.09;;;20.28;100.00
12759;BME280;20944;47.048;15.390;2022-08-25T05:51:45;97603.94;;;20.36;100.00
12759;BME280;20944;47.048;15.390;2022-08-25T05:54:14;97598.88;;;20.46;100.00
12759;BME280;20944;47.048;15.390;2022-08-25T05:56:42;97591.28;;;20.40;100.00
12759;BME280;20944;47.048;15.390;2022-08-25T05:59:11;97599.75;;;20.59;100.00
12759;BME280;20944;47.048;15.390;2022-08-25T06:01:39;97606.16;;;20.82;100.00
12759;BME280;20944;47.048;15.390;2022-08-25T06:04:26;97605.38;;;21.06;100.00
12759;BME280;20944;47.048;15.390;2022-08-25T06:06:54;97608.25;;;21.28;100.00
12759;BME280;20944;47.048;15.390;2022-08-25T06:09:23;97600.44;;;21.50;100.00
12759;BME280;20944;47.048;15.390;2022-08-25T06:11:52;97603.28;;;21.60;100.00
12759;BME280;20944;47.048;15.390;2022-08-25T06:14:22;97599.28;;;21.78;100.00
12759;BME280;20944;47.048;15.390;2022-08-25T06:16:51;97599.47;;;21.99;100.00
12759;BME280;20944;47.048;15.390;2022-08-25T06:19:19;97613.47;;;22.27;100.00
12759;BME280;20944;47.048;15.390;2022-08-25T06:21:53;97599.88;;;22.65;100.00
12759;BME280;20944;47.048;15.390;2022-08-25T06:24:22;97603.47;;;22.99;100.00
12759;BME280;20944;47.048;15.390;2022-08-25T06:26:50;97603.63;;;23.20;100.00
12759;BME280;20944;47.048;15.390;2022-08-25T06:29:19;97607.97;;;23.32;100.00
12759;BME280;20944;47.048;15.390;2022-08-25T06:31:47;97611.13;;;23.37;100.00
12759;BME280;20944;47.048;15.390;2022-08-25T06:34:16;97608.69;;;23.46;100.00
12759;BME280;20944;47.048;15.390;2022-08-25T06:36:49;97608.56;;;23.47;100.00
12759;BME280;20944;47.048;15.390;2022-08-25T06:39:18;97607.09;;;23.54;100.00
12759;BME280;20944;47.048;15.390;2022-08-25T06:41:49;97608.06;;;23.53;100.00
12759;BME280;20944;47.048;15.390;2022-08-25T06:44:17;97606.25;;;23.54;100.00
12759;BME280;20944;47.048;15.390;2022-08-25T06:46:45;97610.03;;;23.62;100.00
12759;BME280;20944;47.048;15.390;2022-08-25T06:49:13;97591.53;;;23.59;100.00
12759;BME280;20944;47.048;15.390;2022-08-25T06:51:41;97604.78;;;23.72;100.00
12759;BME280;20944;47.048;15.390;2022-08-25T06:54:10;97611.09;;;23.82;100.00
12759;BME280;20944;47.048;15.390;2022-08-25T06:56:40;97600.03;;;23.76;100.00
12759;BME280;20944;47.048;15.390;2022-08-25T06:59:09;97607.03;;;23.88;100.00
12759;BME280;20944;47.048;15.390;2022-08-25T07:01:37;97599.78;;;23.79;100.00
12759;BME280;20944;47.048;15.390;2022-08-25T07:04:06;97615.22;;;23.75;100.00
12759;BME280;20944;47.048;15.390;2022-08-25T07:06:40;97611.00;;;23.61;100.00
12759;BME280;20944;47.048;15.390;2022-08-25T07:09:10;97597.75;;;23.49;100.00
12759;BME280;20944;47.048;15.390;2022-08-25T07:11:41;97632.38;;;23.50;100.00
12759;BME280;20944;47.048;15.390;2022-08-25T07:14:11;97615.75;;;23.24;100.00
12759;BME280;20944;47.048;15.390;2022-08-25T07:16:40;97625.34;;;23.15;100.00
12759;BME280;20944;47.048;15.390;2022-08-25T07:19:15;97625.84;;;23.09;100.00
12759;BME280;20944;47.048;15.390;2022-08-25T07:21:48;97627.03;;;23.05;100.00
12759;BME280;20944;47.048;15.390;2022-08-25T07:24:17;97624.97;;;22.98;100.00
12759;BME280;20944;47.048;15.390;2022-08-25T07:26:46;97616.53;;;22.80;100.00
12759;BME280;20944;47.048;15.390;2022-08-25T07:29:18;97631.13;;;22.76;100.00
12759;BME280;20944;47.048;15.390;2022-08-25T07:31:58;97626.72;;;22.64;100.00
12759;BME280;20944;47.048;15.390;2022-08-25T07:34:26;97631.81;;;22.67;100.00
12759;BME280;20944;47.048;15.390;2022-08-25T07:37:19;97629.59;;;22.60;100.00
12759;BME280;20944;47.048;15.390;2022-08-25T07:40:10;97626.09;;;22.60;100.00
12759;BME280;20944;47.048;15.390;2022-08-25T07:42:41;97635.59;;;22.64;100.00
12759;BME280;20944;47.048;15.390;2022-08-25T07:45:10;97638.50;;;22.72;100.00
12759;BME280;20944;47.048;15.390;2022-08-25T07:47:41;97626.16;;;22.82;100.00
12759;BME280;20944;47.048;15.390;2022-08-25T07:50:11;97631.44;;;22.95;100.00
12759;BME280;20944;47.048;15.390;2022-08-25T07:52:40;97632.78;;;23.01;100.00
12759;BME280;20944;47.048;15.390;2022-08-25T07:55:09;97636.03;;;23.04;100.00
12759;BME280;20944;47.048;15.390;2022-08-25T07:57:44;97632.66;;;23.13;100.00
12759;BME280;20944;47.048;15.390;2022-08-25T08:00:21;97637.41;;;23.21;100.00
12759;BME280;20944;47.048;15.390;2022-08-25T08:02:54;97619.75;;;23.19;100.00
12759;BME280;20944;47.048;15.390;2022-08-25T08:05:24;97610.16;;;23.16;100.00
12759;BME280;20944;47.048;15.390;2022-08-25T08:07:53;97652.34;;;23.46;100.00
12759;BME280;20944;47.048;15.390;2022-08-25T08:10:22;97646.03;;;23.58;100.00
12759;BME280;20944;47.048;15.390;2022-08-25T08:13:13;97630.47;;;23.52;100.00
12759;BME280;20944;47.048;15.390;2022-08-25T08:15:44;97646.03;;;23.58;100.00
12759;BME280;20944;47.048;15.390;2022-08-25T08:18:13;97650.41;;;23.59;100.00
12759;BME280;20944;47.048;15.390;2022-08-25T08:20:43;97652.34;;;23.57;100.00
12759;BME280;20944;47.048;15.390;2022-08-25T08:23:11;97630.69;;;23.38;100.00
12759;BME280;20944;47.048;15.390;2022-08-25T08:25:40;97620.25;;;23.12;100.00
12759;BME280;20944;47.048;15.390;2022-08-25T08:28:08;97645.53;;;23.08;100.00
12759;BME280;20944;47.048;15.390;2022-08-25T08:30:38;97651.06;;;22.94;100.00
12759;BME280;20944;47.048;15.390;2022-08-25T08:33:21;97655.94;;;23.00;100.00
12759;BME280;20944;47.048;15.390;2022-08-25T08:35:55;97658.06;;;23.08;100.00
12759;BME280;20944;47.048;15.390;2022-08-25T08:38:25;97632.97;;;22.86;100.00
12759;BME280;20944;47.048;15.390;2022-08-25T08:40:59;97646.97;;;22.90;100.00
12759;BME280;20944;47.048;15.390;2022-08-25T08:43:53;97660.50;;;22.76;100.00
12759;BME280;20944;47.048;15.390;2022-08-25T08:46:30;97658.31;;;22.70;100.00
12759;BME280;20944;47.048;15.390;2022-08-25T08:49:05;97655.25;;;22.74;100.00
12759;BME280;20944;47.048;15.390;2022-08-25T08:51:46;97656.34;;;22.72;100.00
12759;BME280;20944;47.048;15.390;2022-08-25T08:54:22;97642.84;;;22.62;100.00
12759;BME280;20944;47.048;15.390;2022-08-25T08:57:00;97650.53;;;22.78;100.00
12759;BME280;20944;47.048;15.390;2022-08-25T08:59:36;97632.31;;;22.72;100.00
12759;BME280;20944;47.048;15.390;2022-08-25T09:02:13;97643.75;;;22.85;100.00
12759;BME280;20944;47.048;15.390;2022-08-25T09:05:07;97640.78;;;22.90;100.00
12759;BME280;20944;47.048;15.390;2022-08-25T09:07:39;97638.69;;;22.93;100.00
12759;BME280;20944;47.048;15.390;2022-08-25T09:10:13;97651.84;;;22.96;100.00
12759;BME280;20944;47.048;15.390;2022-08-25T09:12:46;97649.75;;;23.00;100.00
12759;BME280;20944;47.048;15.390;2022-08-25T09:15:30;97647.84;;;23.02;100.00
12759;BME280;20944;47.048;15.390;2022-08-25T09:18:21;97591.00;;;22.65;100.00
12759;BME280;20944;47.048;15.390;2022-08-25T09:21:01;97648.56;;;23.15;100.00
12759;BME280;20944;47.048;15.390;2022-08-25T09:23:41;97645.91;;;23.26;100.00
12759;BME280;20944;47.048;15.390;2022-08-25T09:26:31;97647.97;;;23.45;100.00
12759;BME280;20944;47.048;15.390;2022-08-25T09:29:07;97614.06;;;23.46;100.00
12759;BME280;20944;47.048;15.390;2022-08-25T09:31:43;97610.53;;;23.45;100.00
12759;BME280;20944;47.048;15.390;2022-08-25T09:34:19;97646.00;;;23.69;100.00
12759;BME280;20944;47.048;15.390;2022-08-25T09:36:48;97630.94;;;23.68;100.00
12759;BME280;20944;47.048;15.390;2022-08-25T09:39:19;97606.84;;;23.68;100.00
12759;BME280;20944;47.048;15.390;2022-08-25T09:41:50;97640.13;;;23.98;100.00
12759;BME280;20944;47.048;15.390;2022-08-25T09:44:23;97516.66;;;23.37;100.00
12759;BME280;20944;47.048;15.390;2022-08-25T09:47:01;97636.19;;;24.13;100.00
12759;BME280;20944;47.048;15.390;2022-08-25T09:49:34;97626.84;;;24.08;100.00
12759;BME280;20944;47.048;15.390;2022-08-25T09:52:22;97626.38;;;24.03;100.00
12759;BME280;20944;47.048;15.390;2022-08-25T09:54:53;97623.09;;;23.99;100.00
12759;BME280;20944;47.048;15.390;2022-08-25T09:57:30;97626.13;;;23.94;100.00
12759;BME280;20944;47.048;15.390;2022-08-25T10:00:10;97616.16;;;23.97;100.00
12759;BME280;20944;47.048;15.390;2022-08-25T10:02:40;97606.81;;;23.91;100.00
12759;BME280;20944;47.048;15.390;2022-08-25T10:05:19;97617.88;;;23.98;100.00
12759;BME280;20944;47.048;15.390;2022-08-25T10:07:52;97614.22;;;23.99;100.00
12759;BME280;20944;47.048;15.390;2022-08-25T10:10:27;97607.50;;;24.04;100.00
12759;BME280;20944;47.048;15.390;2022-08-25T10:12:58;97604.44;;;24.09;100.00
12759;BME280;20944;47.048;15.390;2022-08-25T10:15:30;97576.75;;;23.87;100.00
12759;BME280;20944;47.048;15.390;2022-08-25T10:18:22;97598.09;;;24.10;100.00
12759;BME280;20944;47.048;15.390;2022-08-25T10:21:11;97603.81;;;24.16;100.00
12759;BME280;20944;47.048;15.390;2022-08-25T10:23:43;97595.75;;;24.16;100.00
12759;BME280;20944;47.048;15.390;2022-08-25T10:26:25;97563.81;;;24.04;100.00
12759;BME280;20944;47.048;15.390;2022-08-25T10:29:10;97564.81;;;24.23;100.00
12759;BME280;20944;47.048;15.390;2022-08-25T10:31:46;97579.38;;;24.42;100.00
12759;BME280;20944;47.048;15.390;2022-08-25T10:34:27;97587.06;;;24.56;100.00
12759;BME280;20944;47.048;15.390;2022-08-25T10:37:09;97572.03;;;24.65;100.00
12759;BME280;20944;47.048;15.390;2022-08-25T10:39:43;97559.75;;;24.62;100.00
12759;BME280;20944;47.048;15.390;2022-08-25T10:42:34;97581.41;;;25.01;100.00
12759;BME280;20944;47.048;15.390;2022-08-25T10:45:25;97577.66;;;25.13;98.16
12759;BME280;20944;47.048;15.390;2022-08-25T10:48:42;97584.03;;;25.12;98.49
12759;BME280;20944;47.048;15.390;2022-08-25T10:51:49;97568.09;;;25.20;99.14
12759;BME280;20944;47.048;15.390;2022-08-25T10:54:38;97571.88;;;25.48;98.67
12759;BME280;20944;47.048;15.390;2022-08-25T10:57:19;97567.50;;;25.57;97.82
12759;BME280;20944;47.048;15.390;2022-08-25T10:59:55;97558.66;;;25.66;95.19
12759;BME280;20944;47.048;15.390;2022-08-25T11:05:29;97557.41;;;25.80;93.93
12759;BME280;20944;47.048;15.390;2022-08-25T11:08:05;97534.69;;;25.84;94.71
12759;BME280;20944;47.048;15.390;2022-08-25T11:10:42;97540.78;;;26.15;92.42
12759;BME280;20944;47.048;15.390;2022-08-25T11:13:20;97535.06;;;26.57;94.40
12759;BME280;20944;47.048;15.390;2022-08-25T11:15:53;97499.84;;;26.60;87.86
12759;BME280;20944;47.048;15.390;2022-08-25T11:18:48;97529.19;;;26.91;88.07
12759;BME280;20944;47.048;15.390;2022-08-25T11:21:21;97516.69;;;26.89;86.81
12759;BME280;20944;47.048;15.390;2022-08-25T11:23:55;97499.06;;;27.14;85.12
12759;BME280;20944;47.048;15.390;2022-08-25T11:26:29;97512.25;;;27.18;64.68
12759;BME280;20944;47.048;15.390;2022-08-25T11:29:08;97517.56;;;27.27;65.07
12759;BME280;20944;47.048;15.390;2022-08-25T11:31:40;97449.66;;;27.15;65.34
12759;BME280;20944;47.048;15.390;2022-08-25T11:34:14;97492.81;;;27.69;63.61
12759;BME280;20944;47.048;15.390;2022-08-25T11:36:49;97467.16;;;27.65;62.02
12759;BME280;20944;47.048;15.390;2022-08-25T11:39:29;97493.34;;;27.90;63.84
12759;BME280;20944;47.048;15.390;2022-08-25T11:42:17;97479.03;;;27.90;59.91
12759;BME280;20944;47.048;15.390;2022-08-25T11:45:00;97418.00;;;27.63;61.92
12759;BME280;20944;47.048;15.390;2022-08-25T11:47:46;97490.50;;;28.10;59.63
12759;BME280;20944;47.048;15.390;2022-08-25T11:50:28;97491.03;;;28.13;62.31
12759;BME280;20944;47.048;15.390;2022-08-25T11:53:01;97483.44;;;27.91;59.39
12759;BME280;20944;47.048;15.390;2022-08-25T11:55:49;97484.81;;;27.95;60.76
12759;BME280;20944;47.048;15.390;2022-08-25T11:58:36;97427.59;;;27.65;58.60
12759;BME280;20944;47.048;15.390;2022-08-25T12:01:09;97447.00;;;27.51;60.03
12759;BME280;20944;47.048;15.390;2022-08-25T12:03:46;97483.19;;;27.66;61.53
12759;BME280;20944;47.048;15.390;2022-08-25T12:06:26;97482.81;;;27.79;60.95
12759;BME280;20944;47.048;15.390;2022-08-25T12:09:18;97478.34;;;27.88;58.26
12759;BME280;20944;47.048;15.390;2022-08-25T12:11:50;97471.56;;;27.84;58.13
12759;BME280;20944;47.048;15.390;2022-08-25T12:14:41;97434.78;;;27.57;57.47
12759;BME280;20944;47.048;15.390;2022-08-25T12:17:26;97473.97;;;27.87;58.01
12759;BME280;20944;47.048;15.390;2022-08-25T12:20:05;97465.59;;;28.16;58.88
12759;BME280;20944;47.048;15.390;2022-08-25T12:22:53;97468.88;;;28.45;59.31
12759;BME280;20944;47.048;15.390;2022-08-25T12:28:46;97476.84;;;29.15;55.29
12759;BME280;20944;47.048;15.390;2022-08-25T12:31:28;97469.84;;;29.31;55.30
12759;BME280;20944;47.048;15.390;2022-08-25T12:34:11;97465.66;;;29.44;53.50
12759;BME280;20944;47.048;15.390;2022-08-25T12:36:55;97405.00;;;29.14;55.01
12759;BME280;20944;47.048;15.390;2022-08-25T12:39:29;97448.16;;;29.73;53.98
12759;BME280;20944;47.048;15.390;2022-08-25T12:42:01;97453.09;;;30.02;52.86
12759;BME280;20944;47.048;15.390;2022-08-25T12:44:40;97459.34;;;30.43;52.44
12759;BME280;20944;47.048;15.390;2022-08-25T12:47:27;97433.94;;;30.52;51.69
12759;BME280;20944;47.048;15.390;2022-08-25T12:50:31;97451.72;;;29.90;51.01
12759;BME280;20944;47.048;15.390;2022-08-25T12:53:11;97438.94;;;29.17;53.58
12759;BME280;20944;47.048;15.390;2022-08-25T12:55:46;97437.13;;;29.42;54.35
12759;BME280;20944;47.048;15.390;2022-08-25T12:58:15;97447.19;;;29.98;53.13
12759;BME280;20944;47.048;15.390;2022-08-25T13:00:59;97434.34;;;30.33;53.17
12759;BME280;20944;47.048;15.390;2022-08-25T13:06:32;97441.69;;;29.49;51.40
12759;BME280;20944;47.048;15.390;2022-08-25T13:12:04;97424.03;;;29.55;52.05
12759;BME280;20944;47.048;15.390;2022-08-25T13:14:36;97423.31;;;29.53;51.72
12759;BME280;20944;47.048;15.390;2022-08-25T13:17:06;97426.22;;;30.08;52.17
12759;BME280;20944;47.048;15.390;2022-08-25T13:19:35;97418.41;;;30.46;51.04
12759;BME280;20944;47.048;15.390;2022-08-25T13:22:12;97411.53;;;30.91;49.04
12759;BME280;20944;47.048;15.390;2022-08-25T13:24:43;97416.03;;;30.99;48.47
12759;BME280;20944;47.048;15.390;2022-08-25T13:27:21;97409.78;;;31.06;48.14